• Join FlightAware (Why Join?)
  • Login
  • US Flag 
06:44PM EDT


 

Airport Tracker/Info


-or-


 

Live Flight TrackerFlight Track Log ✈ EJA922 ✈ 04-Jul-2013 ✈ KSDF - KSOP

Flight Track Log - Related Links

Times and Time Zones

All times are in EDT time to prevent confusion due to time zone crossing. See the EJA922 flight status page for this flight to view local times or setup timezone preferences in your user account.

Time Position Orientation Groundspeed Altitude Reporting Facility
EDT Latitude Longitude Course Direction KTS MPH feet Rate Location/Type
05:59AM 38.1500 -85.7167 163° South 176 203 1,600  Level Louisville TRACON
06:00AM 38.1014 -85.6983 163° South 212 244 5,100 3,000 Climbing Indianapolis Center
06:01AM 38.0806 -85.6111 107° East 272 313 8,100 2,760 Climbing Indianapolis Center
06:02AM 38.0792 -85.5103 91° East 285 328 10,700 1,920 Climbing Indianapolis Center
06:03AM 38.0725 -85.3897 94° East 342 394 12,000 1,800 Climbing Indianapolis Center
06:04AM 38.0228 -85.2789 120° Southeast 357 411 14,400 2,100 Climbing Indianapolis Center
06:05AM 37.9764 -85.1728 119° Southeast 363 418 16,200 1,680 Climbing Indianapolis Center
06:06AM 37.9267 -85.0553 118° Southeast 375 432 17,900 1,620 Climbing Indianapolis Center
06:07AM 37.8736 -84.9369 120° Southeast 384 442 19,500 1,500 Climbing Indianapolis Center
06:08AM 37.8211 -84.8164 119° Southeast 390 449 20,900 1,200 Climbing Indianapolis Center
06:09AM 37.7678 -84.6922 118° Southeast 398 458 22,000 1,320 Climbing Indianapolis Center
06:10AM 37.7161 -84.5756 119° Southeast 383 441 23,600 1,500 Climbing Indianapolis Center
06:11AM 37.6661 -84.4636 119° Southeast 368 423 25,000 1,200 Climbing Indianapolis Center
06:12AM 37.6069 -84.3314 119° Southeast 370 426 26,100 1,140 Climbing Indianapolis Center
06:13AM 37.5561 -84.2150 119° Southeast 378 435 27,400 1,200 Climbing Indianapolis Center
06:14AM 37.5050 -84.1014 120° Southeast 373 429 28,500 1,080 Climbing Indianapolis Center
06:15AM 37.4547 -83.9872 119° Southeast 372 428 29,600 1,140 Climbing Indianapolis Center
06:16AM 37.4028 -83.8731 120° Southeast 375 432 30,900 660 Climbing Indianapolis Center
06:17AM 37.3464 -83.7503 120° Southeast 403 464 31,000  Climbing Indianapolis Center
06:18AM 37.2858 -83.6158 119° Southeast 437 503 31,000  Level Indianapolis Center
06:19AM 37.2225 -83.4756 120° Southeast 458 527 31,000  Level Indianapolis Center
06:20AM 37.1561 -83.3308 120° Southeast 473 544 31,000  Level Indianapolis Center
06:21AM 37.0911 -83.1894 120° Southeast 470 541 31,000  Level Indianapolis Center
06:22AM 37.0267 -83.0503 120° Southeast 464 534 31,000  Level Indianapolis Center
06:23AM 36.9706 -82.9261 119° Southeast 460 529 31,000  Level Indianapolis Center
06:24AM 36.9011 -82.7808 121° Southeast 466 536 31,000  Level Indianapolis Center
06:25AM 36.8325 -82.6344 120° Southeast 481 554 31,000  Level Indianapolis Center
06:26AM 36.7636 -82.4872 120° Southeast 488 562 31,000  Level Indianapolis Center
06:27AM 36.6944 -82.3394 120° Southeast 491 565 31,000 -300 Level Indianapolis Center
06:28AM 36.6250 -82.1875 120° Southeast 501 577 30,500 -1,440 Descending Indianapolis Center
06:29AM 36.5561 -82.0364 120° Southeast 503 579 28,100 -2,400 Descending Indianapolis Center
06:30AM 36.4897 -81.8942 120° Southeast 479 551 25,700 -2,040 Descending Indianapolis Center
06:31AM 36.4269 -81.7533 119° Southeast 468 539 24,000 -1,380 Descending Indianapolis Center
06:32AM 36.3656 -81.6192 120° Southeast 449 517 23,000 -540 Descending Indianapolis Center
06:33AM 36.3061 -81.4856 119° Southeast 441 507 23,000  Level Indianapolis Center
06:34AM 36.2394 -81.3564 123° Southeast 445 512 23,000  Level Indianapolis Center
06:35AM 36.1522 -81.1767 121° Southeast 438 504 23,000  Level Atlanta Center
06:36AM 36.0931 -81.0606 122° Southeast 438 504 23,000  Level Atlanta Center
06:37AM 36.0192 -80.9453 128° Southeast 438 504 23,000  Level Atlanta Center
06:38AM 35.9111 -80.8750 152° Southeast 418 481 23,000  Level Atlanta Center
06:39AM 35.8069 -80.8047 151° Southeast 429 494 23,000 -300 Level Atlanta Center
06:40AM 35.6881 -80.7250 151° Southeast 435 501 22,400 -1,500 Descending Atlanta Center
06:41AM 35.5817 -80.6478 149° Southeast 445 512 20,100 -2,220 Descending Atlanta Center
06:42AM 35.5197 -80.5253 122° Southeast 422 486 18,000 -2,340 Descending Atlanta Center
06:43AM 35.4886 -80.3889 106° East 405 466 15,500 -2,400 Descending Atlanta Center
06:44AM 35.4556 -80.2603 107° East 398 458 13,200 -1,260 Descending Atlanta Center
06:45AM 35.4264 -80.1292 105° East 398 458 13,000 -780 Descending Atlanta Center
06:46AM 35.3956 -80.0083 107° East 380 437 11,700 -1,320 Descending Atlanta Center
06:47AM 35.3672 -79.9103 109° East 353 406 10,400 -1,320 Descending Atlanta Center